createdAt,value
2023-01-19T00:00:39.671Z,-1.65
2023-01-19T00:03:10.455Z,-1.58
2023-01-19T00:05:38.364Z,-1.72
2023-01-19T00:08:15.214Z,-1.65
2023-01-19T00:10:45.055Z,-1.68
2023-01-19T00:13:14.867Z,-1.80
2023-01-19T00:15:42.860Z,-1.78
2023-01-19T00:18:11.246Z,-1.92
2023-01-19T00:20:39.619Z,-1.79
2023-01-19T00:23:08.508Z,-2.11
2023-01-19T00:25:42.150Z,-1.85
2023-01-19T00:28:10.163Z,-1.93
2023-01-19T00:30:39.754Z,-2.02
2023-01-19T00:33:07.872Z,-1.96
2023-01-19T00:35:36.198Z,-1.81
2023-01-19T00:38:04.240Z,-1.80
2023-01-19T00:40:32.378Z,-2.00
2023-01-19T00:43:00.705Z,-2.10
2023-01-19T00:45:28.866Z,-2.13
2023-01-19T00:47:58.199Z,-2.24
2023-01-19T00:50:27.105Z,-2.23
2023-01-19T00:52:56.533Z,-1.88
2023-01-19T00:55:24.989Z,-1.72
2023-01-19T00:57:52.910Z,-1.92
2023-01-19T01:00:22.172Z,-1.80
2023-01-19T01:02:53.009Z,-2.08
2023-01-19T01:05:22.576Z,-2.08
2023-01-19T01:07:50.974Z,-2.17
2023-01-19T01:10:21.116Z,-1.79
2023-01-19T01:12:56.328Z,-2.14
2023-01-19T01:15:27.310Z,-2.22
2023-01-19T01:17:55.661Z,-2.35
2023-01-19T01:20:28.541Z,-2.30
2023-01-19T01:22:57.902Z,-2.17
2023-01-19T01:25:27.958Z,-2.19
2023-01-19T01:27:56.458Z,-2.35
2023-01-19T01:30:24.495Z,-2.25
2023-01-19T01:32:52.488Z,-2.25
2023-01-19T01:35:20.537Z,-2.45
2023-01-19T01:37:49.852Z,-2.37
2023-01-19T01:40:19.275Z,-2.42
2023-01-19T01:42:47.848Z,-2.31
2023-01-19T01:45:31.864Z,-2.49
2023-01-19T01:48:04.287Z,-2.43
2023-01-19T01:50:35.107Z,-2.55
2023-01-19T01:53:09.002Z,-2.65
2023-01-19T01:55:40.904Z,-2.54
2023-01-19T01:58:11.444Z,-2.76
2023-01-19T02:00:55.063Z,-2.51
2023-01-19T02:03:25.181Z,-2.70
2023-01-19T02:05:57.395Z,-2.70
2023-01-19T02:08:49.474Z,-2.77
2023-01-19T02:11:35.377Z,-2.86
2023-01-19T02:14:05.922Z,-2.89
2023-01-19T02:16:34.143Z,-2.80
2023-01-19T02:19:02.173Z,-2.87
2023-01-19T02:21:37.728Z,-2.91
2023-01-19T02:24:08.088Z,-2.99
2023-01-19T02:26:39.253Z,-2.90
2023-01-19T02:29:09.969Z,-2.98
2023-01-19T02:31:40.140Z,-3.03
2023-01-19T02:34:10.642Z,-3.04
2023-01-19T02:36:42.226Z,-3.08
2023-01-19T02:39:13.132Z,-3.13
2023-01-19T02:41:45.711Z,-3.08
2023-01-19T02:44:15.414Z,-3.13
2023-01-19T02:46:43.396Z,-2.95
2023-01-19T02:49:11.502Z,-2.97
2023-01-19T02:51:39.449Z,-3.00
2023-01-19T02:54:20.149Z,-3.04
2023-01-19T02:56:59.488Z,-2.74
2023-01-19T02:59:37.734Z,-2.88
2023-01-19T03:02:24.396Z,-3.01
2023-01-19T03:05:04.901Z,-2.97
2023-01-19T03:07:45.766Z,-3.02
2023-01-19T03:10:21.399Z,-3.13
2023-01-19T03:12:55.896Z,-3.11
2023-01-19T03:15:30.093Z,-3.03
2023-01-19T03:18:01.853Z,-3.04
2023-01-19T03:20:30.260Z,-3.13
2023-01-19T03:23:02.617Z,-3.24
2023-01-19T03:25:37.314Z,-3.22
2023-01-19T03:28:05.492Z,-3.26
2023-01-19T03:30:38.203Z,-3.20
2023-01-19T03:33:10.527Z,-3.10
2023-01-19T03:35:43.590Z,-3.29
2023-01-19T03:38:16.633Z,-3.44
2023-01-19T03:40:48.351Z,-3.27
2023-01-19T03:43:18.384Z,-3.41
2023-01-19T03:45:47.141Z,-3.46
2023-01-19T03:48:15.264Z,-3.20
2023-01-19T03:50:43.303Z,-3.23
2023-01-19T03:53:13.901Z,-3.39
2023-01-19T03:55:44.072Z,-3.42
2023-01-19T03:58:13.388Z,-3.48
2023-01-19T04:00:41.660Z,-3.39
2023-01-19T04:03:14.773Z,-3.47
2023-01-19T04:05:43.019Z,-3.45
2023-01-19T04:08:11.893Z,-3.54
2023-01-19T04:10:39.892Z,-3.36
2023-01-19T04:13:07.946Z,-3.53
2023-01-19T04:15:37.293Z,-3.51
2023-01-19T04:18:05.457Z,-3.42
2023-01-19T04:20:33.921Z,-3.57
2023-01-19T04:23:02.843Z,-3.56
2023-01-19T04:25:31.162Z,-3.54
2023-01-19T04:27:59.101Z,-3.66
2023-01-19T04:30:27.612Z,-3.61
2023-01-19T04:32:56.926Z,-3.75
2023-01-19T04:35:24.868Z,-3.75
2023-01-19T04:37:52.974Z,-3.80
2023-01-19T04:40:21.038Z,-3.73
2023-01-19T04:42:49.022Z,-3.84
2023-01-19T04:45:17.328Z,-3.82
2023-01-19T04:47:45.369Z,-3.66
2023-01-19T04:50:15.179Z,-3.70
2023-01-19T04:52:43.159Z,-3.75
2023-01-19T04:55:11.773Z,-3.34
2023-01-19T04:57:39.938Z,-3.63
2023-01-19T05:00:10.039Z,-3.76
2023-01-19T05:02:38.180Z,-3.73
2023-01-19T05:05:06.687Z,-3.73
2023-01-19T05:07:36.251Z,-3.87
2023-01-19T05:10:05.088Z,-3.87
2023-01-19T05:12:33.129Z,-3.87
2023-01-19T05:15:01.498Z,-3.86
2023-01-19T05:17:29.432Z,-3.87
2023-01-19T05:19:57.497Z,-3.91
2023-01-19T05:22:25.436Z,-3.96
2023-01-19T05:24:54.713Z,-3.92
2023-01-19T05:27:22.593Z,-3.92
2023-01-19T05:29:50.682Z,-3.91
2023-01-19T05:32:18.592Z,-3.75
2023-01-19T05:34:46.532Z,-3.86
2023-01-19T05:37:14.591Z,-3.92
2023-01-19T05:39:42.568Z,-3.75
2023-01-19T05:42:12.093Z,-3.92
2023-01-19T05:44:40.402Z,-3.89
2023-01-19T05:47:08.436Z,-3.94
2023-01-19T05:49:36.525Z,-3.81
2023-01-19T05:52:04.668Z,-3.74
2023-01-19T05:54:32.755Z,-3.69
2023-01-19T05:57:00.805Z,-3.52
2023-01-19T05:59:30.492Z,-3.46
2023-01-19T06:01:59.778Z,-3.46
2023-01-19T06:04:27.872Z,-3.42
2023-01-19T06:06:55.806Z,-3.60
2023-01-19T06:09:23.756Z,-3.61
2023-01-19T06:11:54.114Z,-3.68
2023-01-19T06:14:22.367Z,-3.70
2023-01-19T06:16:52.134Z,-3.75
2023-01-19T06:19:20.176Z,-3.68
2023-01-19T06:21:52.296Z,-3.62
2023-01-19T06:24:20.754Z,-3.51
2023-01-19T06:26:48.613Z,-3.57
2023-01-19T06:29:16.673Z,-3.66
2023-01-19T06:31:44.713Z,-3.83
2023-01-19T06:34:14.384Z,-3.97
2023-01-19T06:36:42.370Z,-3.92
2023-01-19T06:39:10.688Z,-3.94
2023-01-19T06:41:38.888Z,-3.92
2023-01-19T06:44:08.152Z,-3.94
2023-01-19T06:46:36.908Z,-3.99
2023-01-19T06:49:04.785Z,-3.73
2023-01-19T06:51:34.165Z,-3.86
2023-01-19T06:54:02.441Z,-3.86
2023-01-19T06:56:30.515Z,-3.75
2023-01-19T06:58:58.959Z,-3.69
2023-01-19T07:01:27.916Z,-3.90
2023-01-19T07:03:55.936Z,-3.88
2023-01-19T07:06:23.956Z,-3.86
2023-01-19T07:08:53.232Z,-3.87
2023-01-19T07:11:30.301Z,-3.85
2023-01-19T07:14:00.773Z,-3.98
2023-01-19T07:16:28.858Z,-3.96
2023-01-19T07:18:57.099Z,-4.07
2023-01-19T07:21:25.317Z,-3.91
2023-01-19T07:23:54.904Z,-3.88
2023-01-19T07:26:25.013Z,-3.98
2023-01-19T07:28:53.585Z,-3.93
2023-01-19T07:31:21.886Z,-3.72
2023-01-19T07:33:49.988Z,-3.63
2023-01-19T07:36:17.965Z,-3.86
2023-01-19T07:38:46.006Z,-4.06
2023-01-19T07:41:18.255Z,-3.84
2023-01-19T07:43:46.203Z,-3.76
2023-01-19T07:46:14.277Z,-3.78
2023-01-19T07:48:44.240Z,-3.46
2023-01-19T07:51:17.927Z,-3.81
2023-01-19T07:53:46.196Z,-3.83
2023-01-19T07:56:15.679Z,-3.92
2023-01-19T07:58:43.842Z,-3.76
2023-01-19T08:01:14.286Z,-3.71
2023-01-19T08:03:43.955Z,-3.48
2023-01-19T08:06:20.545Z,-3.65
2023-01-19T08:08:48.428Z,-3.66
2023-01-19T08:11:26.716Z,-3.52
2023-01-19T08:13:55.134Z,-3.74
2023-01-19T08:16:23.098Z,-3.76
2023-01-19T08:18:51.134Z,-3.67
2023-01-19T08:21:19.030Z,-3.58
2023-01-19T08:23:53.391Z,-3.32
2023-01-19T08:26:29.970Z,-3.35
2023-01-19T08:29:02.573Z,-3.45
2023-01-19T08:31:30.738Z,-3.49
2023-01-19T08:34:03.647Z,-3.35
2023-01-19T08:36:31.719Z,-3.13
2023-01-19T08:38:59.920Z,-3.20
2023-01-19T08:41:29.242Z,-3.19
2023-01-19T08:43:57.428Z,-3.13
2023-01-19T08:46:25.841Z,-3.15
2023-01-19T08:48:56.113Z,-3.02
2023-01-19T08:51:26.459Z,-3.03
2023-01-19T08:53:54.572Z,-2.90
2023-01-19T08:56:22.750Z,-2.82
2023-01-19T08:59:07.593Z,-2.80
2023-01-19T09:01:37.784Z,-2.89
2023-01-19T09:04:06.433Z,-2.70
2023-01-19T09:06:34.514Z,-2.89
2023-01-19T09:09:02.702Z,-2.81
2023-01-19T09:11:34.964Z,-2.60
2023-01-19T09:14:05.889Z,-2.46
2023-01-19T09:16:35.483Z,-2.46
2023-01-19T09:19:03.488Z,-2.44
2023-01-19T09:21:31.732Z,-2.50
2023-01-19T09:24:02.176Z,-2.47
2023-01-19T09:26:32.209Z,-2.34
2023-01-19T09:29:00.982Z,-2.22
2023-01-19T09:31:30.654Z,-2.46
2023-01-19T09:33:59.092Z,-2.29
2023-01-19T09:36:27.319Z,-2.04
2023-01-19T09:38:55.509Z,-1.87
2023-01-19T09:41:25.922Z,-1.91
2023-01-19T09:43:58.372Z,-1.93
2023-01-19T09:46:41.426Z,-2.00
2023-01-19T09:49:21.664Z,-1.80
2023-01-19T09:51:51.550Z,-1.74
2023-01-19T09:54:21.215Z,-1.71
2023-01-19T09:56:52.628Z,-1.67
2023-01-19T09:59:25.655Z,-1.48
2023-01-19T10:02:07.802Z,-1.52
2023-01-19T10:04:40.808Z,-1.59
2023-01-19T10:07:24.444Z,-1.54
2023-01-19T10:10:12.641Z,-1.52
2023-01-19T10:12:51.901Z,-1.39
2023-01-19T10:15:32.695Z,-1.41
2023-01-19T10:18:15.970Z,-1.05
2023-01-19T10:20:50.055Z,-0.92
2023-01-19T10:23:37.228Z,-0.85
2023-01-19T10:26:11.529Z,-0.72
2023-01-19T10:28:40.756Z,-0.74
2023-01-19T10:31:10.404Z,-0.69
2023-01-19T10:33:40.993Z,-0.60
2023-01-19T10:36:19.790Z,-0.55
2023-01-19T10:38:48.857Z,-0.60
2023-01-19T10:41:24.352Z,-0.73
2023-01-19T10:44:00.834Z,-0.66
2023-01-19T10:46:35.884Z,-0.57
2023-01-19T10:49:06.651Z,-0.55
2023-01-19T10:51:34.810Z,-0.42
2023-01-19T10:54:05.259Z,-0.46
2023-01-19T10:56:36.447Z,-0.35
2023-01-19T10:59:06.985Z,-0.12
2023-01-19T11:01:37.909Z,0.08
2023-01-19T11:04:29.956Z,0.05
2023-01-19T11:07:15.364Z,0.20
2023-01-19T11:09:43.401Z,0.35
2023-01-19T11:12:18.548Z,0.53
2023-01-19T11:14:47.875Z,0.73
2023-01-19T11:17:21.639Z,1.21
2023-01-19T11:20:01.963Z,1.06
2023-01-19T11:22:32.972Z,0.96
2023-01-19T11:25:04.578Z,1.67
2023-01-19T11:27:35.993Z,2.32
2023-01-19T11:30:10.342Z,2.17
2023-01-19T11:32:38.564Z,2.24
2023-01-19T11:35:39.804Z,2.77
2023-01-19T11:38:16.763Z,3.92
2023-01-19T11:40:53.713Z,4.12
2023-01-19T11:43:24.022Z,5.24
2023-01-19T11:45:52.640Z,5.08
2023-01-19T11:48:28.074Z,5.62
2023-01-19T11:50:59.546Z,6.04
2023-01-19T11:53:33.146Z,4.85
2023-01-19T11:56:07.326Z,4.58
2023-01-19T11:58:40.066Z,3.26
2023-01-19T12:01:17.390Z,2.79
2023-01-19T12:03:48.839Z,1.94
2023-01-19T12:06:21.365Z,1.94
2023-01-19T12:08:56.282Z,1.97
2023-01-19T12:11:30.196Z,1.82
2023-01-19T12:13:58.405Z,2.09
2023-01-19T12:16:30.547Z,2.13
2023-01-19T12:19:02.638Z,2.16
2023-01-19T12:21:34.918Z,2.15
2023-01-19T12:24:12.777Z,2.12
2023-01-19T12:26:50.324Z,2.17
2023-01-19T12:29:21.770Z,2.14
2023-01-19T12:32:21.031Z,2.56
2023-01-19T12:34:51.707Z,2.78
2023-01-19T12:37:36.228Z,2.80
2023-01-19T12:40:19.357Z,3.70
2023-01-19T12:42:48.915Z,4.84
2023-01-19T12:45:22.945Z,6.91
2023-01-19T12:47:54.741Z,6.57
2023-01-19T12:50:26.326Z,7.53
2023-01-19T12:52:58.395Z,6.73
2023-01-19T12:55:33.132Z,7.60
2023-01-19T12:58:04.303Z,7.29
2023-01-19T13:00:35.992Z,8.90
2023-01-19T13:03:29.209Z,8.60
2023-01-19T13:05:58.292Z,7.71
2023-01-19T13:08:31.106Z,7.14
2023-01-19T13:11:21.016Z,8.60
2023-01-19T13:14:28.972Z,7.63
2023-01-19T13:17:18.551Z,6.78
2023-01-19T13:19:53.175Z,7.74
2023-01-19T13:22:53.446Z,7.28
2023-01-19T13:25:31.145Z,7.42
2023-01-19T13:27:59.646Z,6.71
2023-01-19T13:30:30.041Z,6.58
2023-01-19T13:33:07.503Z,6.90
2023-01-19T13:35:35.715Z,5.47
2023-01-19T13:38:04.545Z,5.57
2023-01-19T13:40:39.563Z,5.07
2023-01-19T13:43:17.925Z,4.24
2023-01-19T13:45:51.751Z,4.05
2023-01-19T13:48:23.272Z,3.70
2023-01-19T13:50:59.277Z,3.46
2023-01-19T13:53:27.323Z,3.28
2023-01-19T13:56:11.302Z,3.11
2023-01-19T13:58:39.363Z,3.23
2023-01-19T14:01:08.513Z,3.29
2023-01-19T14:03:36.542Z,3.04
2023-01-19T14:06:04.736Z,2.59
2023-01-19T14:08:34.033Z,2.58
2023-01-19T14:11:03.235Z,2.27
2023-01-19T14:13:33.753Z,2.29
2023-01-19T14:16:06.440Z,2.24
2023-01-19T14:18:35.508Z,2.23
2023-01-19T14:21:09.343Z,2.29
2023-01-19T14:23:44.149Z,2.11
2023-01-19T14:26:43.551Z,1.98
2023-01-19T14:29:27.808Z,1.99
2023-01-19T14:32:12.254Z,1.77
2023-01-19T14:34:43.776Z,1.80
2023-01-19T14:37:19.766Z,1.86
2023-01-19T14:39:49.620Z,1.70
2023-01-19T14:42:23.034Z,1.50
2023-01-19T14:44:54.186Z,1.49
2023-01-19T14:47:35.499Z,1.33
2023-01-19T14:50:09.547Z,1.42
2023-01-19T14:52:41.627Z,1.40
2023-01-19T14:55:20.388Z,0.83
2023-01-19T14:57:48.792Z,0.69
2023-01-19T15:00:21.270Z,0.58
2023-01-19T15:02:50.137Z,0.46
2023-01-19T15:05:18.471Z,0.43
2023-01-19T15:07:49.993Z,0.41
2023-01-19T15:10:21.878Z,0.31
2023-01-19T15:12:51.375Z,0.48
2023-01-19T15:15:25.840Z,0.28
2023-01-19T15:17:56.209Z,0.30
2023-01-19T15:20:24.683Z,0.36
2023-01-19T15:22:52.834Z,0.27
2023-01-19T15:25:22.780Z,0.23
2023-01-19T15:27:51.277Z,0.19
2023-01-19T15:30:24.048Z,0.50
2023-01-19T15:32:52.117Z,0.02
2023-01-19T15:35:22.037Z,-0.04
2023-01-19T15:37:51.084Z,0.59
2023-01-19T15:40:22.630Z,0.11
2023-01-19T15:42:51.204Z,-0.03
2023-01-19T15:45:33.477Z,-0.01
2023-01-19T15:48:02.791Z,-0.08
2023-01-19T15:50:31.147Z,-0.04
2023-01-19T15:52:59.334Z,-0.12
2023-01-19T15:55:27.558Z,-0.18
2023-01-19T15:58:01.527Z,-0.22
2023-01-19T16:00:32.064Z,-0.23
2023-01-19T16:03:00.549Z,0.03
2023-01-19T16:05:42.001Z,-0.25
2023-01-19T16:08:11.162Z,-0.21
2023-01-19T16:10:39.401Z,-0.27
2023-01-19T16:13:07.542Z,-0.14
2023-01-19T16:15:38.093Z,-0.10
2023-01-19T16:18:06.864Z,-0.13
2023-01-19T16:20:35.156Z,0.20
2023-01-19T16:23:14.527Z,-0.19
2023-01-19T16:25:43.343Z,-0.06
2023-01-19T16:28:11.429Z,0.17
2023-01-19T16:30:41.182Z,0.01
2023-01-19T16:33:11.503Z,-0.05
2023-01-19T16:35:39.510Z,-0.07
2023-01-19T16:38:10.537Z,-0.23
2023-01-19T16:40:38.917Z,-0.34
2023-01-19T16:43:06.933Z,-0.15
2023-01-19T16:45:35.073Z,-0.32
2023-01-19T16:48:04.479Z,-0.42
2023-01-19T16:50:32.516Z,-0.50
2023-01-19T16:53:00.453Z,-0.24
2023-01-19T16:55:28.378Z,-0.37
2023-01-19T16:57:59.391Z,-0.39
2023-01-19T17:00:27.368Z,-0.22
2023-01-19T17:02:55.432Z,-0.37
2023-01-19T17:05:25.207Z,-0.29
2023-01-19T17:07:53.664Z,-0.36
2023-01-19T17:10:22.068Z,-0.35
2023-01-19T17:12:49.938Z,-0.34
2023-01-19T17:15:18.011Z,-0.28
2023-01-19T17:17:45.962Z,-0.41
2023-01-19T17:20:14.647Z,-0.28
2023-01-19T17:22:44.117Z,-0.19
2023-01-19T17:25:12.196Z,-0.01
2023-01-19T17:27:40.037Z,-0.18
2023-01-19T17:30:08.999Z,0.04
2023-01-19T17:32:36.951Z,0.08
2023-01-19T17:35:05.412Z,0.06
2023-01-19T17:37:33.325Z,0.19
2023-01-19T17:40:03.025Z,-0.17
2023-01-19T17:42:33.540Z,-0.09
2023-01-19T17:45:01.425Z,-0.13
2023-01-19T17:47:29.373Z,-0.24
2023-01-19T17:49:57.257Z,-0.25
2023-01-19T17:52:25.323Z,-0.06
2023-01-19T17:54:53.280Z,-0.18
2023-01-19T17:57:22.497Z,-0.13
2023-01-19T17:59:50.560Z,-0.18
2023-01-19T18:02:19.065Z,-0.14
2023-01-19T18:04:47.023Z,-0.23
2023-01-19T18:07:15.019Z,-0.25
2023-01-19T18:09:43.010Z,-0.07
2023-01-19T18:12:11.081Z,-0.19
2023-01-19T18:14:41.132Z,-0.03
2023-01-19T18:17:09.289Z,0.12
2023-01-19T18:19:37.272Z,0.01
2023-01-19T18:22:05.244Z,0.07
2023-01-19T18:24:33.421Z,0.11
2023-01-19T18:27:01.324Z,0.30
2023-01-19T18:29:29.267Z,0.00
2023-01-19T18:31:58.644Z,0.07
2023-01-19T18:34:26.670Z,0.11
2023-01-19T18:36:54.790Z,0.14
2023-01-19T18:39:23.036Z,0.11
2023-01-19T18:41:50.990Z,0.17
2023-01-19T18:44:19.023Z,0.15
2023-01-19T18:46:47.101Z,0.24
2023-01-19T18:49:16.551Z,0.35
2023-01-19T18:51:44.546Z,0.38
2023-01-19T18:54:12.929Z,0.33
2023-01-19T18:56:42.070Z,0.11
2023-01-19T18:59:10.627Z,0.18
2023-01-19T19:01:38.900Z,0.14
2023-01-19T19:04:08.093Z,0.16
2023-01-19T19:06:37.433Z,-0.02
2023-01-19T19:09:05.514Z,0.17
2023-01-19T19:11:33.468Z,0.06
2023-01-19T19:14:03.034Z,0.23
2023-01-19T19:16:34.787Z,0.30
2023-01-19T19:19:03.543Z,0.34
2023-01-19T19:21:31.607Z,0.24
2023-01-19T19:24:00.976Z,0.22
2023-01-19T19:26:29.339Z,0.47
2023-01-19T19:28:57.939Z,0.28
2023-01-19T19:31:27.659Z,0.43
2023-01-19T19:33:57.068Z,0.44
2023-01-19T19:36:26.695Z,0.48
2023-01-19T19:38:54.912Z,0.47
2023-01-19T19:41:27.507Z,0.49
2023-01-19T19:43:56.256Z,0.55
2023-01-19T19:46:25.122Z,0.56
2023-01-19T19:48:54.046Z,0.56
2023-01-19T19:51:25.419Z,0.47
2023-01-19T19:53:55.319Z,0.40
2023-01-19T19:56:26.312Z,0.59
2023-01-19T19:58:56.869Z,0.61
2023-01-19T20:01:28.571Z,0.72
2023-01-19T20:04:00.044Z,0.62
2023-01-19T20:06:28.975Z,0.61
2023-01-19T20:08:59.570Z,0.71
2023-01-19T20:11:29.608Z,0.66
2023-01-19T20:13:57.522Z,0.97
2023-01-19T20:16:26.437Z,0.82
2023-01-19T20:18:55.050Z,0.72
2023-01-19T20:21:25.661Z,0.88
2023-01-19T20:23:55.192Z,0.67
2023-01-19T20:26:26.430Z,0.74
2023-01-19T20:28:59.546Z,0.73
2023-01-19T20:31:29.823Z,0.79
2023-01-19T20:34:00.178Z,0.83
2023-01-19T20:36:28.890Z,0.76
2023-01-19T20:38:58.529Z,0.95
2023-01-19T20:41:27.679Z,0.88
2023-01-19T20:43:57.197Z,0.92
2023-01-19T20:46:25.553Z,0.88
2023-01-19T20:48:54.749Z,0.84
2023-01-19T20:51:23.265Z,0.85
2023-01-19T20:53:51.338Z,0.89
2023-01-19T20:56:19.525Z,0.94
2023-01-19T20:58:47.769Z,1.03
2023-01-19T21:01:20.307Z,0.86
2023-01-19T21:03:49.042Z,0.88
2023-01-19T21:06:20.388Z,0.81
2023-01-19T21:08:49.841Z,0.93
2023-01-19T21:11:20.977Z,1.00
2023-01-19T21:13:50.505Z,0.76
2023-01-19T21:16:19.986Z,1.01
2023-01-19T21:18:51.326Z,1.20
2023-01-19T21:21:29.921Z,1.09
2023-01-19T21:23:59.605Z,1.08
2023-01-19T21:26:33.238Z,1.23
2023-01-19T21:29:02.984Z,1.04
2023-01-19T21:31:32.504Z,1.08
2023-01-19T21:34:06.878Z,1.14
2023-01-19T21:36:35.329Z,1.10
2023-01-19T21:39:05.342Z,1.14
2023-01-19T21:41:35.982Z,1.05
2023-01-19T21:44:04.218Z,1.02
2023-01-19T21:46:34.533Z,1.18
2023-01-19T21:49:05.075Z,1.13
2023-01-19T21:51:36.314Z,1.31
2023-01-19T21:54:06.759Z,1.21
2023-01-19T21:56:35.631Z,1.29
2023-01-19T21:59:07.542Z,1.37
2023-01-19T22:01:37.283Z,1.35
2023-01-19T22:04:05.571Z,1.20
2023-01-19T22:06:33.888Z,1.22
2023-01-19T22:09:01.903Z,1.07
2023-01-19T22:11:30.167Z,1.09
2023-01-19T22:13:59.488Z,1.05
2023-01-19T22:16:27.948Z,1.07
2023-01-19T22:18:59.512Z,1.26
2023-01-19T22:21:30.261Z,1.25
2023-01-19T22:24:00.196Z,1.18
2023-01-19T22:26:29.877Z,1.24
2023-01-19T22:28:59.905Z,1.15
2023-01-19T22:31:29.602Z,1.21
2023-01-19T22:33:59.665Z,1.28
2023-01-19T22:36:30.038Z,1.39
2023-01-19T22:38:59.340Z,1.21
2023-01-19T22:41:29.082Z,1.21
2023-01-19T22:43:58.908Z,1.24
2023-01-19T22:46:31.199Z,1.16
2023-01-19T22:49:00.763Z,1.35
2023-01-19T22:51:30.333Z,1.39
2023-01-19T22:54:02.031Z,1.37
2023-01-19T22:56:31.607Z,1.29
2023-01-19T22:59:00.177Z,1.34
2023-01-19T23:01:30.548Z,1.27
2023-01-19T23:04:00.577Z,1.39
2023-01-19T23:06:30.605Z,1.64
2023-01-19T23:09:00.533Z,1.73
2023-01-19T23:11:30.453Z,1.66
2023-01-19T23:13:59.171Z,1.69
2023-01-19T23:16:27.248Z,1.66
2023-01-19T23:18:56.755Z,1.61
2023-01-19T23:21:28.817Z,1.61
2023-01-19T23:23:57.660Z,1.47
2023-01-19T23:26:26.257Z,1.56
2023-01-19T23:28:56.748Z,1.39
2023-01-19T23:31:26.812Z,1.51
2023-01-19T23:33:56.437Z,1.73
2023-01-19T23:36:27.988Z,1.74
2023-01-19T23:38:57.068Z,1.71
2023-01-19T23:41:26.018Z,1.52
2023-01-19T23:43:54.037Z,1.71
2023-01-19T23:46:22.658Z,1.41
2023-01-19T23:48:50.880Z,1.48
2023-01-19T23:51:21.152Z,1.61
2023-01-19T23:53:50.969Z,1.47
2023-01-19T23:56:20.919Z,1.52
2023-01-19T23:58:54.234Z,1.48
